Aérodrome :
LOGIN :

S'inscrire | Disclaimer

   EN    FR    IT 

 










Légende :    VFR   VFR Marginal   IFR   IFR Intensif   IFR Très Intensif
Visi : 
Plafond : 
>= 8 km
>= 3000ft
5 à 8 km
1000 à 3000 ft
1500m à 5 km
500 à 1000 ft
800 à 1500m
200 à 500 ft
< 800m
< 200 ft
Symboles :   Orages  Brouillard  Fortes neiges  Fortes précipitations  Vent > 20 kt
SIGMETs :   Divers  Orages  Givrage  Turbulence  Onde Orograph.  Cendres Volcan.







- Altitude de l'aérodrome : 245 ft
- Code IATA : BIQ
- Voir les cartes d'approche


LFBZ - Biarritz

DERNIER METAR :
  • 190200Z AUTO 22003KT 9999 FEW011 BKN026 BKN160 09/08 Q1021 TEMPO 4000 BR OVC003

METARs EXPIRÉS :
  • 190130Z AUTO 21002KT 9000 SCT009 BKN015 BKN023 09/08 Q1021 TEMPO 4000 BR OVC003
  • 190100Z AUTO 24003KT 210V270 7000 BKN008 BKN014 BKN019 09/09 Q1021 TEMPO 4000 BR OVC003
  • 190030Z AUTO 22003KT 4600 BR FEW003 SCT022 BKN180 09/08 Q1021 TEMPO OVC003
  • 190000Z AUTO VRB03KT 3100 BR BKN004 OVC021 10/10 Q1021 NOSIG
  • 182330Z AUTO VRB02KT 3600 BR FEW006 SCT018 BKN024 10/10 Q1021 TEMPO OVC003

TAF AMD TAF LFBZ
Valide du 19 à 01h jusqu'au 20 à 00h UTC


190159Z 1901/1924 28005KT 9999 BKN015
TEMPO 1901/1906 4000 BR
PROB40
TEMPO 1901/1906 OVC003
BECMG 1909/1912 06006KT CAVOK
Pas de NOTAMs connus pour ce terrain.



MET'MAP, la Météo Aéronautique d'un coup d'oeil ! - Copyright ORBIFLY Décembre 2007 - Disclaimer

ORBIFLY MET'MAP TEAM :

Programmation & Développement : Alexandra Zaïnal
Conception & Développement : Baudouin d'Aumeries
Co-Programmation & Développement : Marc-Olivier Méhu
Soutien technique & logistique : Manuel Goepfert

Contact : metmap@orbifly.com




SOURCES & CREDITS :

   NOAA